createdAt,value
2019-05-17T00:01:19.703Z,11.82
2019-05-17T00:02:19.709Z,11.85
2019-05-17T00:04:12.613Z,11.88
2019-05-17T00:05:12.622Z,11.85
2019-05-17T00:07:06.490Z,11.94
2019-05-17T00:08:07.769Z,11.90
2019-05-17T00:09:58.468Z,11.85
2019-05-17T00:10:58.452Z,11.82
2019-05-17T00:12:51.370Z,11.70
2019-05-17T00:13:51.368Z,11.75
2019-05-17T00:15:44.283Z,11.58
2019-05-17T00:16:44.286Z,11.70
2019-05-17T00:18:37.190Z,11.64
2019-05-17T00:19:37.200Z,11.62
2019-05-17T00:21:30.110Z,11.73
2019-05-17T00:22:30.116Z,11.67
2019-05-17T00:24:23.025Z,11.60
2019-05-17T00:25:23.029Z,11.58
2019-05-17T00:27:17.275Z,11.64
2019-05-17T00:28:16.446Z,11.60
2019-05-17T00:30:08.863Z,11.67
2019-05-17T00:31:08.859Z,11.65
2019-05-17T00:33:01.769Z,11.69
2019-05-17T00:34:01.773Z,11.69
2019-05-17T00:35:56.272Z,11.64
2019-05-17T00:36:54.691Z,11.69
2019-05-17T00:38:50.976Z,11.69
2019-05-17T00:39:47.602Z,11.62
2019-05-17T00:41:40.512Z,11.61
2019-05-17T00:42:40.515Z,11.69
2019-05-17T00:44:33.420Z,11.75
2019-05-17T00:45:33.428Z,11.75
2019-05-17T00:47:26.547Z,11.64
2019-05-17T00:48:26.540Z,11.65
2019-05-17T00:50:19.251Z,11.70
2019-05-17T00:51:19.257Z,11.70
2019-05-17T00:53:12.170Z,11.64
2019-05-17T00:54:12.171Z,11.65
2019-05-17T00:56:06.664Z,11.61
2019-05-17T00:57:07.300Z,11.55
2019-05-17T00:58:58.051Z,11.49
2019-05-17T00:59:58.038Z,11.42
2019-05-17T01:01:50.963Z,11.54
2019-05-17T01:02:50.967Z,11.51
2019-05-17T01:04:43.893Z,11.42
2019-05-17T01:05:43.882Z,11.43
2019-05-17T01:07:37.683Z,11.39
2019-05-17T01:08:37.339Z,11.37
2019-05-17T01:10:29.701Z,11.39
2019-05-17T01:11:29.711Z,11.21
2019-05-17T01:13:22.623Z,11.32
2019-05-17T01:14:22.625Z,11.24
2019-05-17T01:16:16.619Z,11.27
2019-05-17T01:17:16.576Z,11.24
2019-05-17T01:19:08.456Z,11.24
2019-05-17T01:20:08.457Z,11.21
2019-05-17T01:22:01.373Z,11.19
2019-05-17T01:23:01.372Z,11.17
2019-05-17T01:24:54.279Z,11.11
2019-05-17T01:25:56.538Z,11.18
2019-05-17T01:27:47.621Z,11.17
2019-05-17T01:28:47.206Z,11.14
2019-05-17T01:30:40.113Z,11.17
2019-05-17T01:31:40.130Z,11.07
2019-05-17T01:33:33.029Z,11.17
2019-05-17T01:34:33.035Z,11.17
2019-05-17T01:36:26.387Z,11.15
2019-05-17T01:37:27.723Z,11.17
2019-05-17T01:39:21.485Z,11.10
2019-05-17T01:40:18.861Z,11.21
2019-05-17T01:42:11.765Z,11.22
2019-05-17T01:43:11.778Z,11.27
2019-05-17T01:45:04.685Z,11.28
2019-05-17T01:46:06.670Z,11.21
2019-05-17T01:47:57.601Z,11.19
2019-05-17T01:48:57.852Z,11.19
2019-05-17T01:50:50.509Z,11.25
2019-05-17T01:51:50.519Z,11.17
2019-05-17T01:53:43.427Z,11.25
2019-05-17T01:54:43.432Z,11.22
2019-05-17T01:56:36.932Z,11.22
2019-05-17T01:57:36.968Z,11.25
2019-05-17T01:59:29.255Z,11.33
2019-05-17T02:00:29.256Z,11.37
2019-05-17T02:02:22.160Z,11.28
2019-05-17T02:03:22.171Z,11.32
2019-05-17T02:05:17.283Z,11.42
2019-05-17T02:06:16.568Z,11.43
2019-05-17T02:08:08.125Z,11.43
2019-05-17T02:09:07.999Z,11.37
2019-05-17T02:11:00.907Z,11.39
2019-05-17T02:12:00.915Z,11.43
2019-05-17T02:13:56.152Z,11.49
2019-05-17T02:14:53.830Z,11.44
2019-05-17T02:16:46.880Z,11.47
2019-05-17T02:17:47.051Z,11.43
2019-05-17T02:19:39.649Z,11.54
2019-05-17T02:20:39.652Z,11.47
2019-05-17T02:22:32.561Z,11.60
2019-05-17T02:23:32.570Z,11.54
2019-05-17T02:25:27.233Z,11.60
2019-05-17T02:26:26.696Z,11.58
2019-05-17T02:28:18.391Z,11.67
2019-05-17T02:29:18.399Z,11.60
2019-05-17T02:31:13.280Z,11.67
2019-05-17T02:32:12.891Z,11.64
2019-05-17T02:34:04.234Z,11.58
2019-05-17T02:35:04.237Z,11.58
2019-05-17T02:36:57.138Z,11.58
2019-05-17T02:37:57.148Z,11.55
2019-05-17T02:39:58.058Z,11.65
2019-05-17T02:40:53.268Z,11.57
2019-05-17T02:42:43.423Z,11.61
2019-05-17T02:43:43.499Z,11.61
2019-05-17T02:45:35.886Z,11.64
2019-05-17T02:46:35.889Z,11.64
2019-05-17T02:48:28.802Z,11.67
2019-05-17T02:49:28.807Z,11.65
2019-05-17T02:51:23.708Z,11.62
2019-05-17T02:52:22.992Z,11.72
2019-05-17T02:54:14.634Z,11.62
2019-05-17T02:55:14.647Z,11.72
2019-05-17T02:57:07.557Z,11.73
2019-05-17T02:58:07.558Z,11.76
2019-05-17T03:00:04.063Z,11.76
2019-05-17T03:01:03.285Z,11.76
2019-05-17T03:02:53.711Z,11.72
2019-05-17T03:03:53.391Z,11.76
2019-05-17T03:05:46.374Z,11.76
2019-05-17T03:06:46.300Z,11.62
2019-05-17T03:08:39.209Z,11.60
2019-05-17T03:09:39.218Z,11.47
2019-05-17T03:11:33.283Z,11.46
2019-05-17T03:12:32.904Z,11.51
2019-05-17T03:14:25.044Z,11.51
2019-05-17T03:15:25.047Z,11.49
2019-05-17T03:17:17.961Z,11.49
2019-05-17T03:18:17.958Z,11.47
2019-05-17T03:20:12.992Z,11.44
2019-05-17T03:21:13.484Z,11.47
2019-05-17T03:23:04.279Z,11.44
2019-05-17T03:24:03.827Z,11.51
2019-05-17T03:25:56.705Z,11.52
2019-05-17T03:26:56.702Z,11.52
2019-05-17T03:28:49.611Z,11.58
2019-05-17T03:29:53.510Z,11.44
2019-05-17T03:31:51.030Z,11.49
2019-05-17T03:32:47.786Z,11.49
2019-05-17T03:34:36.944Z,11.46
2019-05-17T03:35:37.665Z,11.46
2019-05-17T03:37:34.132Z,11.52
2019-05-17T03:38:28.363Z,11.55
2019-05-17T03:40:43.798Z,11.47
2019-05-17T03:41:27.827Z,11.57
2019-05-17T03:43:14.678Z,11.49
2019-05-17T03:44:14.685Z,11.47
2019-05-17T03:46:07.597Z,11.58
2019-05-17T03:47:07.602Z,11.58
2019-05-17T03:49:03.517Z,11.60
2019-05-17T03:50:03.181Z,11.60
2019-05-17T03:51:53.476Z,11.65
2019-05-17T03:52:53.771Z,11.62
2019-05-17T03:54:46.337Z,11.67
2019-05-17T03:55:46.346Z,11.75
2019-05-17T03:57:39.259Z,11.69
2019-05-17T03:58:39.263Z,11.75
2019-05-17T04:00:35.417Z,11.78
2019-05-17T04:01:32.793Z,11.67
2019-05-17T04:03:25.149Z,11.76
2019-05-17T04:04:25.093Z,11.85
2019-05-17T04:06:18.008Z,11.83
2019-05-17T04:07:18.006Z,11.85
2019-05-17T04:09:13.769Z,11.88
2019-05-17T04:10:10.923Z,11.85
2019-05-17T04:12:03.831Z,11.82
2019-05-17T04:13:04.609Z,11.86
2019-05-17T04:14:56.741Z,11.86
2019-05-17T04:15:56.751Z,11.88
2019-05-17T04:17:52.678Z,11.83
2019-05-17T04:18:49.667Z,11.90
2019-05-17T04:20:43.425Z,11.76
2019-05-17T04:21:42.994Z,11.79
2019-05-17T04:23:35.505Z,11.78
2019-05-17T04:24:35.494Z,11.79
2019-05-17T04:26:28.399Z,11.69
2019-05-17T04:27:28.409Z,11.61
2019-05-17T04:29:22.707Z,11.72
2019-05-17T04:30:23.358Z,11.65
2019-05-17T04:32:14.237Z,11.76
2019-05-17T04:33:14.240Z,11.73
2019-05-17T04:35:07.147Z,11.72
2019-05-17T04:36:07.154Z,11.72
2019-05-17T04:38:03.682Z,11.73
2019-05-17T04:39:02.489Z,11.76
2019-05-17T04:40:53.732Z,11.60
2019-05-17T04:41:54.736Z,11.67
2019-05-17T04:43:45.904Z,11.60
2019-05-17T04:44:45.907Z,11.73
2019-05-17T04:46:38.814Z,11.64
2019-05-17T04:47:38.835Z,11.73
2019-05-17T04:49:33.176Z,11.76
2019-05-17T04:50:33.504Z,11.65
2019-05-17T04:52:24.662Z,11.88
2019-05-17T04:53:24.656Z,11.91
2019-05-17T04:55:17.557Z,11.90
2019-05-17T04:56:17.567Z,11.85
2019-05-17T04:58:13.453Z,11.90
2019-05-17T04:59:13.498Z,11.95
2019-05-17T05:01:04.219Z,11.96
2019-05-17T05:02:03.580Z,11.98
2019-05-17T05:03:56.305Z,11.95
2019-05-17T05:04:56.312Z,11.99
2019-05-17T05:06:52.271Z,12.13
2019-05-17T05:07:49.229Z,12.04
2019-05-17T05:09:43.020Z,12.16
2019-05-17T05:10:42.876Z,12.16
2019-05-17T05:12:35.085Z,12.14
2019-05-17T05:13:35.095Z,12.21
2019-05-17T05:15:28.008Z,12.14
2019-05-17T05:16:28.012Z,12.24
2019-05-17T05:18:22.192Z,12.38
2019-05-17T05:19:22.370Z,12.45
2019-05-17T05:21:13.835Z,12.54
2019-05-17T05:22:17.418Z,12.65
2019-05-17T05:24:06.771Z,12.78
2019-05-17T05:25:06.762Z,12.78
2019-05-17T05:26:59.672Z,12.85
2019-05-17T05:27:59.683Z,12.89
2019-05-17T05:29:52.595Z,12.93
2019-05-17T05:30:52.836Z,13.05
2019-05-17T05:32:45.514Z,12.87
2019-05-17T05:33:45.519Z,12.90
2019-05-17T05:35:38.436Z,12.87
2019-05-17T05:36:38.436Z,13.00
2019-05-17T05:38:31.981Z,12.86
2019-05-17T05:39:31.945Z,12.89
2019-05-17T05:41:24.270Z,12.90
2019-05-17T05:42:24.275Z,12.92
2019-05-17T05:44:17.185Z,12.87
2019-05-17T05:45:17.192Z,12.87
2019-05-17T05:47:11.606Z,12.86
2019-05-17T05:48:12.443Z,12.87
2019-05-17T05:50:03.021Z,12.90
2019-05-17T05:51:04.914Z,12.89
2019-05-17T05:52:55.937Z,13.00
2019-05-17T05:53:55.947Z,13.00
2019-05-17T05:55:48.862Z,12.95
2019-05-17T05:56:48.866Z,12.89
2019-05-17T05:58:42.828Z,13.05
2019-05-17T05:59:42.686Z,12.93
2019-05-17T06:01:34.697Z,12.89
2019-05-17T06:02:34.700Z,12.83
2019-05-17T06:04:27.635Z,12.72
2019-05-17T06:05:27.621Z,12.85
2019-05-17T06:07:21.623Z,12.92
2019-05-17T06:08:22.649Z,12.86
2019-05-17T06:10:13.523Z,12.92
2019-05-17T06:11:13.457Z,12.97
2019-05-17T06:13:06.381Z,13.10
2019-05-17T06:14:06.391Z,13.00
2019-05-17T06:15:59.297Z,13.07
2019-05-17T06:16:59.302Z,13.03
2019-05-17T06:18:52.210Z,13.15
2019-05-17T06:19:52.219Z,13.12
2019-05-17T06:21:45.133Z,13.14
2019-05-17T06:22:45.138Z,13.15
2019-05-17T06:24:38.048Z,13.12
2019-05-17T06:25:38.058Z,13.05
2019-05-17T06:27:32.127Z,13.07
2019-05-17T06:28:31.893Z,13.10
2019-05-17T06:30:23.894Z,13.03
2019-05-17T06:31:24.173Z,13.03
2019-05-17T06:33:28.103Z,13.14
2019-05-17T06:34:16.819Z,13.07
2019-05-17T06:36:09.746Z,13.07
2019-05-17T06:37:09.737Z,13.14
2019-05-17T06:39:02.643Z,13.10
2019-05-17T06:40:02.717Z,13.26
2019-05-17T06:41:55.565Z,13.32
2019-05-17T06:42:55.573Z,13.48
2019-05-17T06:44:48.486Z,13.60
2019-05-17T06:45:48.490Z,13.79
2019-05-17T06:47:42.639Z,13.67
2019-05-17T06:48:42.357Z,13.69
2019-05-17T06:50:34.338Z,13.75
2019-05-17T06:51:34.340Z,13.77
2019-05-17T06:53:27.251Z,13.87
2019-05-17T06:54:27.266Z,13.87
2019-05-17T06:56:20.180Z,13.95
2019-05-17T06:57:20.183Z,13.97
2019-05-17T06:59:13.095Z,14.04
2019-05-17T07:00:19.711Z,13.97
2019-05-17T07:02:06.024Z,13.99
2019-05-17T07:03:06.030Z,13.71
2019-05-17T07:05:01.338Z,13.73
2019-05-17T07:05:59.597Z,13.78
2019-05-17T07:07:52.014Z,13.66
2019-05-17T07:08:52.018Z,13.52
2019-05-17T07:10:44.954Z,13.57
2019-05-17T07:11:44.940Z,13.62
2019-05-17T07:13:39.561Z,13.67
2019-05-17T07:14:39.997Z,13.67
2019-05-17T07:16:30.784Z,13.67
2019-05-17T07:17:30.784Z,13.67
2019-05-17T07:19:23.697Z,13.85
2019-05-17T07:20:23.709Z,13.92
2019-05-17T07:22:16.619Z,14.00
2019-05-17T07:23:16.630Z,14.02
2019-05-17T07:25:10.762Z,14.06
2019-05-17T07:26:12.082Z,14.03
2019-05-17T07:28:02.478Z,14.14
2019-05-17T07:29:02.477Z,14.21
2019-05-17T07:30:55.391Z,14.21
2019-05-17T07:31:55.401Z,14.22
2019-05-17T07:33:50.339Z,14.25
2019-05-17T07:34:50.189Z,13.91
2019-05-17T07:36:41.242Z,14.12
2019-05-17T07:37:41.248Z,14.09
2019-05-17T07:39:34.161Z,14.09
2019-05-17T07:40:34.174Z,14.12
2019-05-17T07:42:27.101Z,14.20
2019-05-17T07:43:27.095Z,14.20
2019-05-17T07:45:20.390Z,14.25
2019-05-17T07:46:20.612Z,14.25
2019-05-17T07:48:12.948Z,14.32
2019-05-17T07:49:12.944Z,14.17
2019-05-17T07:51:05.857Z,14.17
2019-05-17T07:52:05.864Z,14.14
2019-05-17T07:53:59.739Z,14.22
2019-05-17T07:55:02.271Z,14.15
2019-05-17T07:56:51.715Z,13.89
2019-05-17T07:57:51.714Z,14.02
2019-05-17T07:59:44.633Z,14.22
2019-05-17T08:00:44.634Z,14.10
2019-05-17T08:02:39.990Z,14.02
2019-05-17T08:03:37.557Z,14.04
2019-05-17T08:05:30.467Z,13.95
2019-05-17T08:06:30.736Z,14.03
2019-05-17T08:08:23.400Z,14.00
2019-05-17T08:09:23.421Z,14.14
2019-05-17T08:11:16.313Z,14.10
2019-05-17T08:12:16.324Z,14.14
2019-05-17T08:14:10.577Z,14.22
2019-05-17T08:15:10.771Z,14.06
2019-05-17T08:17:02.157Z,14.27
2019-05-17T08:18:02.171Z,14.42
2019-05-17T08:19:55.084Z,14.64
2019-05-17T08:20:55.090Z,14.88
2019-05-17T08:22:50.076Z,14.99
2019-05-17T08:23:50.416Z,15.09
2019-05-17T08:25:52.801Z,15.31
2019-05-17T08:26:40.943Z,15.35
2019-05-17T08:28:33.862Z,15.38
2019-05-17T08:29:33.861Z,15.21
2019-05-17T08:31:26.787Z,15.35
2019-05-17T08:32:26.798Z,15.32
2019-05-17T08:34:19.803Z,15.38
2019-05-17T08:35:19.869Z,15.43
2019-05-17T08:37:12.718Z,15.38
2019-05-17T08:38:12.678Z,15.34
2019-05-17T08:40:05.609Z,15.44
2019-05-17T08:41:05.604Z,15.38
2019-05-17T08:43:00.142Z,15.34
2019-05-17T08:44:00.666Z,15.17
2019-05-17T08:45:51.451Z,15.11
2019-05-17T08:46:51.457Z,15.10
2019-05-17T08:48:44.376Z,15.02
2019-05-17T08:49:44.383Z,15.03
2019-05-17T08:51:39.495Z,15.09
2019-05-17T08:52:37.306Z,15.02
2019-05-17T08:54:30.492Z,14.89
2019-05-17T08:55:30.266Z,14.78
2019-05-17T08:57:23.162Z,14.73
2019-05-17T08:58:23.170Z,14.64
2019-05-17T09:00:16.090Z,14.55
2019-05-17T09:01:16.105Z,14.69
2019-05-17T09:03:10.757Z,14.69
2019-05-17T09:04:09.334Z,14.62
2019-05-17T09:06:02.923Z,14.51
2019-05-17T09:07:03.229Z,14.55
2019-05-17T09:08:54.883Z,14.51
2019-05-17T09:09:54.886Z,14.37
2019-05-17T09:11:50.042Z,14.33
2019-05-17T09:12:50.093Z,14.32
2019-05-17T09:14:40.723Z,14.28
2019-05-17T09:15:40.730Z,14.39
2019-05-17T09:17:33.640Z,14.33
2019-05-17T09:18:33.653Z,14.40
2019-05-17T09:20:26.570Z,14.46
2019-05-17T09:21:26.572Z,14.55
2019-05-17T09:23:19.823Z,14.73
2019-05-17T09:24:19.561Z,14.91
2019-05-17T09:26:12.409Z,14.91
2019-05-17T09:27:12.422Z,14.91
2019-05-17T09:29:05.336Z,14.62
2019-05-17T09:30:05.341Z,14.61
2019-05-17T09:31:59.959Z,14.65
2019-05-17T09:33:00.305Z,14.64
2019-05-17T09:34:51.184Z,14.70
2019-05-17T09:35:51.192Z,14.69
2019-05-17T09:37:44.611Z,14.55
2019-05-17T09:38:44.619Z,14.68
2019-05-17T09:40:39.887Z,14.72
2019-05-17T09:41:39.610Z,14.68
2019-05-17T09:43:30.456Z,14.84
2019-05-17T09:44:30.488Z,14.88
2019-05-17T09:46:23.386Z,14.92
2019-05-17T09:47:23.390Z,14.95
2019-05-17T09:49:16.309Z,15.17
2019-05-17T09:50:16.316Z,15.20
2019-05-17T09:52:09.547Z,14.95
2019-05-17T09:53:10.845Z,14.95
2019-05-17T09:55:02.159Z,14.83
2019-05-17T09:56:02.168Z,14.70
2019-05-17T09:57:55.090Z,14.46
2019-05-17T09:58:55.092Z,14.57
2019-05-17T10:00:49.504Z,14.43
2019-05-17T10:01:49.509Z,14.51
2019-05-17T10:03:40.959Z,14.57
2019-05-17T10:04:40.972Z,14.62
2019-05-17T10:06:33.890Z,14.42
2019-05-17T10:07:33.897Z,14.43
2019-05-17T10:09:26.812Z,14.46
2019-05-17T10:10:26.820Z,14.51
2019-05-17T10:12:20.251Z,14.46
2019-05-17T10:13:20.242Z,14.65
2019-05-17T10:15:12.663Z,14.61
2019-05-17T10:16:12.668Z,14.75
2019-05-17T10:18:05.604Z,14.83
2019-05-17T10:19:05.597Z,14.78
2019-05-17T10:20:59.873Z,14.94
2019-05-17T10:21:59.783Z,15.07
2019-05-17T10:23:51.432Z,14.99
2019-05-17T10:24:51.448Z,14.98
2019-05-17T10:26:44.368Z,15.06
2019-05-17T10:27:44.367Z,15.09
2019-05-17T10:29:39.361Z,15.25
2019-05-17T10:30:39.552Z,15.27
2019-05-17T10:32:30.894Z,15.43
2019-05-17T10:33:30.221Z,15.47
2019-05-17T10:35:23.170Z,15.39
2019-05-17T10:36:23.180Z,15.38
2019-05-17T10:38:16.100Z,15.29
2019-05-17T10:39:16.105Z,15.16
2019-05-17T10:41:10.172Z,15.25
2019-05-17T10:42:10.054Z,15.20
2019-05-17T10:44:01.941Z,15.20
2019-05-17T10:45:01.957Z,15.03
2019-05-17T10:46:54.870Z,15.09
2019-05-17T10:47:54.877Z,15.01
2019-05-17T10:49:49.664Z,15.11
2019-05-17T10:50:49.643Z,14.98
2019-05-17T10:52:41.261Z,15.02
2019-05-17T10:53:40.724Z,14.94
2019-05-17T10:55:33.653Z,15.14
2019-05-17T10:56:33.646Z,14.98
2019-05-17T10:58:26.561Z,14.92
2019-05-17T10:59:26.570Z,14.96
2019-05-17T11:01:20.009Z,14.95
2019-05-17T11:02:19.783Z,14.86
2019-05-17T11:04:12.400Z,14.69
2019-05-17T11:05:12.412Z,14.70
2019-05-17T11:07:06.852Z,14.61
2019-05-17T11:08:05.335Z,14.52
2019-05-17T11:10:00.324Z,14.27
2019-05-17T11:10:59.577Z,14.45
2019-05-17T11:12:51.174Z,14.42
2019-05-17T11:13:52.980Z,14.43
2019-05-17T11:15:44.585Z,14.52
2019-05-17T11:16:44.597Z,14.50
2019-05-17T11:18:37.511Z,14.64
2019-05-17T11:19:37.522Z,14.65
2019-05-17T11:21:30.435Z,14.80
2019-05-17T11:22:30.439Z,14.75
2019-05-17T11:24:23.350Z,14.94
2019-05-17T11:25:23.368Z,14.95
2019-05-17T11:27:16.275Z,15.03
2019-05-17T11:28:16.285Z,15.20
2019-05-17T11:30:09.201Z,15.31
2019-05-17T11:31:09.207Z,15.29
2019-05-17T11:33:02.134Z,15.35
2019-05-17T11:34:02.142Z,15.39
2019-05-17T11:35:55.058Z,15.59
2019-05-17T11:36:55.068Z,15.71
2019-05-17T11:38:47.976Z,15.87
2019-05-17T11:39:47.988Z,16.07
2019-05-17T11:41:40.907Z,16.31
2019-05-17T11:42:40.918Z,16.49
2019-05-17T11:44:33.843Z,16.63
2019-05-17T11:45:33.841Z,16.81
2019-05-17T11:47:26.759Z,17.15
2019-05-17T11:48:26.770Z,17.44
2019-05-17T11:50:19.681Z,17.72
2019-05-17T11:51:19.697Z,17.75
2019-05-17T11:53:12.618Z,17.79
2019-05-17T11:54:12.625Z,17.95
2019-05-17T11:56:05.559Z,18.05
2019-05-17T11:57:05.559Z,18.00
2019-05-17T11:58:58.477Z,18.29
2019-05-17T11:59:58.490Z,18.47
2019-05-17T12:01:51.418Z,18.72
2019-05-17T12:02:51.431Z,18.80
2019-05-17T12:04:44.341Z,18.67
2019-05-17T12:05:44.359Z,18.60
2019-05-17T12:07:37.283Z,18.75
2019-05-17T12:08:37.301Z,18.87
2019-05-17T12:10:30.235Z,18.80
2019-05-17T12:11:30.227Z,18.66
2019-05-17T12:13:23.150Z,18.70
2019-05-17T12:14:23.158Z,18.76
2019-05-17T12:16:16.082Z,18.78
2019-05-17T12:17:16.093Z,18.75
2019-05-17T12:19:09.013Z,18.33
2019-05-17T12:20:09.052Z,18.27
2019-05-17T12:22:01.951Z,18.27
2019-05-17T12:23:01.967Z,18.12
2019-05-17T12:24:54.876Z,18.26
2019-05-17T12:25:54.976Z,18.36
2019-05-17T12:27:47.874Z,18.67
2019-05-17T12:28:47.855Z,18.81
2019-05-17T12:30:40.768Z,18.90
2019-05-17T12:31:40.786Z,18.82
2019-05-17T12:33:33.711Z,18.62
2019-05-17T12:34:33.725Z,18.58
2019-05-17T12:36:26.654Z,18.52
2019-05-17T12:37:26.669Z,18.52
2019-05-17T12:39:19.575Z,18.54
2019-05-17T12:40:19.589Z,18.47
2019-05-17T12:42:12.523Z,18.67
2019-05-17T12:43:12.525Z,18.80
2019-05-17T12:45:05.450Z,18.84
2019-05-17T12:46:05.460Z,18.78
2019-05-17T12:47:58.410Z,18.87
2019-05-17T12:49:01.726Z,18.75
2019-05-17T12:50:51.325Z,19.21
2019-05-17T12:51:51.340Z,19.21
2019-05-17T12:53:44.265Z,19.29
2019-05-17T12:54:44.277Z,19.28
2019-05-17T12:56:37.201Z,19.28
2019-05-17T12:57:37.210Z,19.31
2019-05-17T12:59:30.127Z,19.28
2019-05-17T13:00:30.144Z,19.26
2019-05-17T13:02:23.071Z,19.54
2019-05-17T13:03:23.082Z,19.69
2019-05-17T13:05:15.995Z,19.41
2019-05-17T13:06:16.013Z,19.55
2019-05-17T13:08:08.937Z,19.41
2019-05-17T13:09:08.959Z,19.36
2019-05-17T13:11:01.867Z,19.37
2019-05-17T13:12:01.893Z,19.36
2019-05-17T13:13:54.806Z,19.28
2019-05-17T13:14:54.820Z,19.16
2019-05-17T13:16:47.750Z,19.22
2019-05-17T13:17:47.753Z,19.14
2019-05-17T13:19:40.670Z,19.19
2019-05-17T13:20:40.686Z,19.28
2019-05-17T13:22:33.613Z,19.26
2019-05-17T13:23:33.647Z,19.39
2019-05-17T13:25:26.547Z,19.51
2019-05-17T13:26:26.559Z,19.58
2019-05-17T13:28:19.484Z,19.48
2019-05-17T13:29:19.501Z,19.33
2019-05-17T13:31:12.451Z,19.41
2019-05-17T13:32:12.430Z,19.61
2019-05-17T13:34:05.360Z,19.74
2019-05-17T13:35:05.366Z,19.80
2019-05-17T13:36:58.288Z,19.69
2019-05-17T13:37:58.300Z,19.58
2019-05-17T13:39:51.218Z,19.71
2019-05-17T13:40:51.239Z,19.71
2019-05-17T13:42:44.159Z,19.88
2019-05-17T13:43:44.174Z,19.88
2019-05-17T13:45:37.097Z,20.18
2019-05-17T13:46:37.126Z,20.31
2019-05-17T13:48:30.029Z,20.28
2019-05-17T13:49:30.118Z,20.03
2019-05-17T13:51:22.962Z,20.11
2019-05-17T13:52:23.008Z,20.13
2019-05-17T13:54:15.903Z,20.14
2019-05-17T13:55:15.922Z,20.06
2019-05-17T13:57:11.384Z,20.17
2019-05-17T13:58:08.854Z,20.14
2019-05-17T14:00:01.824Z,20.41
2019-05-17T14:01:01.851Z,20.48
2019-05-17T14:02:54.711Z,20.21
2019-05-17T14:03:54.737Z,20.28
2019-05-17T14:05:47.641Z,20.24
2019-05-17T14:06:47.704Z,20.38
2019-05-17T14:08:40.603Z,20.16
2019-05-17T14:09:40.619Z,20.16
2019-05-17T14:11:33.652Z,19.88
2019-05-17T14:12:33.669Z,19.80
2019-05-17T14:14:26.593Z,19.50
2019-05-17T14:15:26.605Z,19.54
2019-05-17T14:17:19.531Z,19.51
2019-05-17T14:18:19.553Z,19.69
2019-05-17T14:20:12.481Z,19.87
2019-05-17T14:21:12.496Z,20.01
2019-05-17T14:23:05.422Z,19.68
2019-05-17T14:24:05.436Z,19.68
2019-05-17T14:25:58.423Z,19.68
2019-05-17T14:26:58.365Z,19.74
2019-05-17T14:28:51.289Z,19.65
2019-05-17T14:29:51.301Z,19.62
2019-05-17T14:31:44.216Z,19.68
2019-05-17T14:32:44.236Z,19.33
2019-05-17T14:34:37.173Z,19.39
2019-05-17T14:35:37.183Z,19.48
2019-05-17T14:37:30.101Z,19.32
2019-05-17T14:38:30.115Z,19.33
2019-05-17T14:40:23.030Z,19.47
2019-05-17T14:41:23.047Z,19.37
2019-05-17T14:43:15.970Z,19.48
2019-05-17T14:44:15.979Z,19.51
2019-05-17T14:46:08.904Z,19.36
2019-05-17T14:47:08.920Z,19.36
2019-05-17T14:49:01.848Z,19.44
2019-05-17T14:50:01.858Z,19.29
2019-05-17T14:51:54.787Z,19.36
2019-05-17T14:52:54.805Z,19.39
2019-05-17T14:54:47.728Z,19.58
2019-05-17T14:55:47.739Z,19.61
2019-05-17T14:57:42.883Z,19.37
2019-05-17T14:58:40.673Z,19.23
2019-05-17T15:00:33.599Z,19.31
2019-05-17T15:01:33.614Z,19.36
2019-05-17T15:03:26.551Z,19.28
2019-05-17T15:04:26.543Z,19.39
2019-05-17T15:06:19.458Z,19.50
2019-05-17T15:07:19.474Z,19.61
2019-05-17T15:09:12.406Z,19.44
2019-05-17T15:10:12.409Z,19.46
2019-05-17T15:12:05.333Z,19.29
2019-05-17T15:13:05.530Z,19.31
2019-05-17T15:14:58.278Z,19.47
2019-05-17T15:15:58.282Z,19.56
2019-05-17T15:17:51.222Z,19.54
2019-05-17T15:18:51.215Z,19.63
2019-05-17T15:20:44.134Z,19.51
2019-05-17T15:21:44.158Z,19.46
2019-05-17T15:23:37.298Z,19.32
2019-05-17T15:24:37.094Z,19.39
2019-05-17T15:26:30.002Z,19.56
2019-05-17T15:27:30.017Z,19.51
2019-05-17T15:29:22.965Z,19.71
2019-05-17T15:30:22.977Z,19.71
2019-05-17T15:32:15.948Z,19.87
2019-05-17T15:33:15.967Z,19.92
2019-05-17T15:35:08.875Z,19.96
2019-05-17T15:36:08.887Z,19.94
2019-05-17T15:38:01.868Z,19.83
2019-05-17T15:39:01.830Z,19.80
2019-05-17T15:40:54.744Z,20.06
2019-05-17T15:41:54.756Z,20.01
2019-05-17T15:43:47.681Z,20.03
2019-05-17T15:44:47.690Z,20.05
2019-05-17T15:46:40.615Z,19.98
2019-05-17T15:47:40.647Z,20.06
2019-05-17T15:49:33.555Z,20.13
2019-05-17T15:50:33.569Z,20.18
2019-05-17T15:52:26.499Z,20.23
2019-05-17T15:53:26.501Z,20.14
2019-05-17T15:55:19.918Z,20.10
2019-05-17T15:56:19.929Z,20.18
2019-05-17T15:58:12.856Z,19.96
2019-05-17T15:59:12.866Z,19.74
2019-05-17T16:01:05.791Z,19.37
2019-05-17T16:02:05.916Z,19.22
2019-05-17T16:03:58.725Z,19.25
2019-05-17T16:04:58.736Z,19.28
2019-05-17T16:06:52.144Z,19.29
2019-05-17T16:07:52.173Z,19.23
2019-05-17T16:09:45.098Z,19.26
2019-05-17T16:10:45.105Z,19.28
2019-05-17T16:12:38.033Z,19.22
2019-05-17T16:13:38.034Z,19.23
2019-05-17T16:15:30.955Z,18.98
2019-05-17T16:16:30.967Z,19.10
2019-05-17T16:18:24.902Z,19.13
2019-05-17T16:19:24.920Z,19.10
2019-05-17T16:21:17.844Z,19.21
2019-05-17T16:22:17.850Z,19.22
2019-05-17T16:24:10.772Z,19.32
2019-05-17T16:25:10.789Z,19.28
2019-05-17T16:27:03.700Z,19.22
2019-05-17T16:28:03.708Z,19.26
2019-05-17T16:29:57.155Z,19.08
2019-05-17T16:30:57.151Z,19.08
2019-05-17T16:32:50.077Z,19.10
2019-05-17T16:33:50.987Z,19.02
2019-05-17T16:35:42.997Z,18.94
2019-05-17T16:36:43.014Z,18.99
2019-05-17T16:38:35.937Z,18.95
2019-05-17T16:39:35.960Z,18.94
2019-05-17T16:41:28.906Z,19.13
2019-05-17T16:42:28.876Z,19.14
2019-05-17T16:44:21.799Z,19.19
2019-05-17T16:45:21.808Z,18.98
2019-05-17T16:47:14.737Z,18.94
2019-05-17T16:48:14.743Z,18.95
2019-05-17T16:50:07.656Z,18.99
2019-05-17T16:51:07.670Z,18.95
2019-05-17T16:53:05.923Z,18.95
2019-05-17T16:54:00.600Z,18.87
2019-05-17T16:55:53.520Z,18.88
2019-05-17T16:56:53.536Z,18.87
2019-05-17T16:58:46.458Z,18.87
2019-05-17T16:59:46.467Z,18.98
2019-05-17T17:01:39.391Z,19.14
2019-05-17T17:02:39.498Z,19.14
2019-05-17T17:04:32.322Z,19.21
2019-05-17T17:05:32.334Z,19.26
2019-05-17T17:07:25.259Z,19.28
2019-05-17T17:08:25.270Z,19.25
2019-05-17T17:10:18.191Z,19.23
2019-05-17T17:11:18.199Z,19.25
2019-05-17T17:13:11.198Z,19.37
2019-05-17T17:14:11.134Z,19.36
2019-05-17T17:16:04.107Z,19.37
2019-05-17T17:17:10.331Z,19.33
2019-05-17T17:18:56.991Z,19.43
2019-05-17T17:19:56.997Z,19.41
2019-05-17T17:21:50.410Z,19.40
2019-05-17T17:22:50.426Z,19.28
2019-05-17T17:24:44.896Z,19.21
2019-05-17T17:25:44.903Z,19.08
2019-05-17T17:27:37.765Z,19.00
2019-05-17T17:28:37.781Z,18.98
2019-05-17T17:30:30.702Z,18.98
2019-05-17T17:31:30.712Z,18.90
2019-05-17T17:33:23.634Z,18.66
2019-05-17T17:34:23.641Z,18.63
2019-05-17T17:36:19.344Z,18.63
2019-05-17T17:37:16.573Z,18.58
2019-05-17T17:39:09.492Z,18.51
2019-05-17T17:40:09.541Z,18.41
2019-05-17T17:42:02.418Z,18.44
2019-05-17T17:43:02.433Z,18.42
2019-05-17T17:44:55.364Z,18.35
2019-05-17T17:45:55.365Z,18.23
2019-05-17T17:47:48.284Z,18.20
2019-05-17T17:48:48.310Z,18.25
2019-05-17T17:50:41.223Z,18.29
2019-05-17T17:51:41.236Z,18.23
2019-05-17T17:53:34.180Z,18.17
2019-05-17T17:54:34.204Z,18.15
2019-05-17T17:56:27.076Z,18.12
2019-05-17T17:57:27.159Z,18.08
2019-05-17T17:59:20.033Z,17.99
2019-05-17T18:00:20.039Z,18.05
2019-05-17T18:02:12.936Z,17.96
2019-05-17T18:03:12.941Z,17.97
2019-05-17T18:05:05.926Z,17.93
2019-05-17T18:06:05.940Z,17.93
2019-05-17T18:07:59.276Z,18.05
2019-05-17T18:08:59.292Z,18.08
2019-05-17T18:10:52.215Z,18.08
2019-05-17T18:11:52.223Z,18.11
2019-05-17T18:13:45.143Z,18.18
2019-05-17T18:14:45.149Z,18.23
2019-05-17T18:16:38.556Z,18.12
2019-05-17T18:17:39.608Z,18.20
2019-05-17T18:19:31.514Z,18.27
2019-05-17T18:20:31.500Z,18.12
2019-05-17T18:22:24.413Z,17.97
2019-05-17T18:23:24.430Z,17.99
2019-05-17T18:25:17.349Z,18.05
2019-05-17T18:26:17.355Z,17.99
2019-05-17T18:28:10.277Z,18.05
2019-05-17T18:29:10.290Z,18.02
2019-05-17T18:31:03.745Z,17.93
2019-05-17T18:32:03.752Z,17.90
2019-05-17T18:33:56.671Z,17.96